This is the latest recevied weather packets stored in our database for station/object IN3XSV-13. If no packets are shown the sender has not sent any weather packets the latest 10 day(s).
| Time | Temp. | Humidity | Pressure | Rain* | Wind** | Luminosity | Snow |
|---|---|---|---|---|---|---|---|
| 1787916464 | 35° C | 35% | 1009.5 hPa | 0 mm | - | - | - |
| 1787916164 | 33.89° C | 37% | 1009 hPa | 0 mm | - | - | - |
| 1787915864 | 33.89° C | 35% | 1009.4 hPa | 0 mm | - | - | - |
| 1787915564 | 34.44° C | 35% | 1009.3 hPa | 0 mm | - | - | - |
| 1787915264 | 34.44° C | 37% | 1009.2 hPa | 0 mm | - | - | - |
| 1787914964 | 34.44° C | 35% | 1009.2 hPa | 0 mm | - | - | - |
| 1787914664 | 35.56° C | 36% | 1009.2 hPa | 0 mm | - | - | - |
| 1787914364 | 35° C | 35% | 1009.2 hPa | 0 mm | - | - | - |
| 1787914064 | 34.44° C | 37% | 1009.3 hPa | 0 mm | - | - | - |
| 1787913764 | 34.44° C | 38% | 1009.3 hPa | 0 mm | - | - | - |
| 1787913464 | 33.89° C | 37% | 1009.3 hPa | 0 mm | - | - | - |
| 1787913164 | 33.89° C | 37% | 1009.2 hPa | 0 mm | - | - | - |
| 1787912864 | 34.44° C | 40% | 1009.2 hPa | 0 mm | - | - | - |
| 1787912564 | 34.44° C | 40% | 1009.2 hPa | 0 mm | - | - | - |
| 1787912264 | 33.89° C | 49% | 1009.7 hPa | 0 mm | - | - | - |
| 1787911964 | 34.44° C | 42% | 1009.6 hPa | 0 mm | - | - | - |
| 1787911664 | 33.33° C | 50% | 1009.7 hPa | 0 mm | - | - | - |
| 1787911364 | 32.22° C | 56% | 1009.5 hPa | 0 mm | - | - | - |
| 1787911064 | 32.78° C | 54% | 1009.8 hPa | 0 mm | - | - | - |
| 1787910764 | 32.78° C | 57% | 1010.1 hPa | 0 mm | - | - | - |
| 1787910464 | 31.11° C | 59% | 1010.1 hPa | 0 mm | - | - | - |
| 1787910164 | 30.56° C | 60% | 1010.3 hPa | 0 mm | - | - | - |
| 1787909864 | 30.56° C | 58% | 1010.2 hPa | 0 mm | - | - | - |
| 1787909564 | 29.44° C | 61% | 1010.4 hPa | 0 mm | - | - | - |
| 1787909264 | 29.44° C | 60% | 1010.4 hPa | 0 mm | - | - | - |
* Rain latest hour (hover to see other rain measurements)
** Current wind speed in m/s (hover to see current wind gust speed)